sensor_id;sensor_type;location;lat;lon;timestamp;temperature;humidity
30234;DHT22;17046;52.074;4.748;2022-11-30T00:00:14;7.00;99.90
30234;DHT22;17046;52.074;4.748;2022-11-30T00:02:40;7.10;99.90
30234;DHT22;17046;52.074;4.748;2022-11-30T00:05:06;7.10;99.90
30234;DHT22;17046;52.074;4.748;2022-11-30T00:07:32;7.10;99.90
30234;DHT22;17046;52.074;4.748;2022-11-30T00:09:58;7.10;99.90
30234;DHT22;17046;52.074;4.748;2022-11-30T00:12:23;7.20;99.90
30234;DHT22;17046;52.074;4.748;2022-11-30T00:14:49;7.20;99.90
30234;DHT22;17046;52.074;4.748;2022-11-30T00:17:14;7.20;99.90
30234;DHT22;17046;52.074;4.748;2022-11-30T00:19:41;7.20;99.90
30234;DHT22;17046;52.074;4.748;2022-11-30T00:22:07;7.30;99.90
30234;DHT22;17046;52.074;4.748;2022-11-30T00:24:32;7.40;99.90
30234;DHT22;17046;52.074;4.748;2022-11-30T00:26:58;7.40;99.90
30234;DHT22;17046;52.074;4.748;2022-11-30T00:29:23;7.40;99.90
30234;DHT22;17046;52.074;4.748;2022-11-30T00:31:49;7.40;99.90
30234;DHT22;17046;52.074;4.748;2022-11-30T00:34:14;7.50;99.90
30234;DHT22;17046;52.074;4.748;2022-11-30T00:36:40;7.50;99.90
30234;DHT22;17046;52.074;4.748;2022-11-30T00:39:05;7.40;99.90
30234;DHT22;17046;52.074;4.748;2022-11-30T00:41:31;7.40;99.90
30234;DHT22;17046;52.074;4.748;2022-11-30T00:43:56;7.50;99.90
30234;DHT22;17046;52.074;4.748;2022-11-30T00:46:22;7.50;99.90
30234;DHT22;17046;52.074;4.748;2022-11-30T00:49:25;7.50;99.90
30234;DHT22;17046;52.074;4.748;2022-11-30T00:51:50;7.60;99.90
30234;DHT22;17046;52.074;4.748;2022-11-30T00:54:16;7.60;99.90
30234;DHT22;17046;52.074;4.748;2022-11-30T00:56:41;7.50;99.90
30234;DHT22;17046;52.074;4.748;2022-11-30T00:59:07;7.60;99.90
30234;DHT22;17046;52.074;4.748;2022-11-30T01:01:32;7.50;99.90
30234;DHT22;17046;52.074;4.748;2022-11-30T01:03:58;7.50;99.90
30234;DHT22;17046;52.074;4.748;2022-11-30T01:06:24;7.50;99.90
30234;DHT22;17046;52.074;4.748;2022-11-30T01:08:49;7.50;99.90
30234;DHT22;17046;52.074;4.748;2022-11-30T01:11:23;7.50;99.90
30234;DHT22;17046;52.074;4.748;2022-11-30T01:13:49;7.30;99.90
30234;DHT22;17046;52.074;4.748;2022-11-30T01:16:18;7.30;99.90
30234;DHT22;17046;52.074;4.748;2022-11-30T01:18:44;7.20;99.90
30234;DHT22;17046;52.074;4.748;2022-11-30T01:21:12;7.20;99.90
30234;DHT22;17046;52.074;4.748;2022-11-30T01:23:39;7.20;99.90
30234;DHT22;17046;52.074;4.748;2022-11-30T01:26:04;7.20;99.90
30234;DHT22;17046;52.074;4.748;2022-11-30T01:28:30;7.20;99.90
30234;DHT22;17046;52.074;4.748;2022-11-30T01:30:57;7.20;99.90
30234;DHT22;17046;52.074;4.748;2022-11-30T01:33:23;7.20;99.90
30234;DHT22;17046;52.074;4.748;2022-11-30T01:36:04;7.10;99.90
30234;DHT22;17046;52.074;4.748;2022-11-30T01:38:35;7.10;99.90
30234;DHT22;17046;52.074;4.748;2022-11-30T01:41:02;7.10;99.90
30234;DHT22;17046;52.074;4.748;2022-11-30T01:43:42;7.10;99.90
30234;DHT22;17046;52.074;4.748;2022-11-30T01:46:23;7.10;99.90
30234;DHT22;17046;52.074;4.748;2022-11-30T01:49:02;7.10;99.90
30234;DHT22;17046;52.074;4.748;2022-11-30T01:51:43;7.20;99.90
30234;DHT22;17046;52.074;4.748;2022-11-30T01:54:12;7.20;99.90
30234;DHT22;17046;52.074;4.748;2022-11-30T01:56:45;7.10;99.90
30234;DHT22;17046;52.074;4.748;2022-11-30T01:59:12;7.10;99.90
30234;DHT22;17046;52.074;4.748;2022-11-30T02:01:39;7.00;99.90
30234;DHT22;17046;52.074;4.748;2022-11-30T02:04:12;6.90;99.90
30234;DHT22;17046;52.074;4.748;2022-11-30T02:06:39;6.80;99.90
30234;DHT22;17046;52.074;4.748;2022-11-30T02:09:05;7.10;99.90
30234;DHT22;17046;52.074;4.748;2022-11-30T02:11:32;6.80;99.90
30234;DHT22;17046;52.074;4.748;2022-11-30T02:17:36;6.70;99.90
30234;DHT22;17046;52.074;4.748;2022-11-30T02:22:45;6.80;99.90
30234;DHT22;17046;52.074;4.748;2022-11-30T02:30:16;6.70;99.90
30234;DHT22;17046;52.074;4.748;2022-11-30T02:32:49;6.70;99.90
30234;DHT22;17046;52.074;4.748;2022-11-30T02:35:20;6.60;99.90
30234;DHT22;17046;52.074;4.748;2022-11-30T02:37:47;6.60;99.90
30234;DHT22;17046;52.074;4.748;2022-11-30T02:40:17;6.60;99.90
30234;DHT22;17046;52.074;4.748;2022-11-30T02:42:42;6.70;99.90
30234;DHT22;17046;52.074;4.748;2022-11-30T02:45:08;6.80;99.90
30234;DHT22;17046;52.074;4.748;2022-11-30T02:50:44;6.80;99.90
30234;DHT22;17046;52.074;4.748;2022-11-30T02:53:11;6.60;99.90
30234;DHT22;17046;52.074;4.748;2022-11-30T02:55:37;6.60;99.90
30234;DHT22;17046;52.074;4.748;2022-11-30T02:58:03;6.50;99.90
30234;DHT22;17046;52.074;4.748;2022-11-30T03:00:29;6.40;99.90
30234;DHT22;17046;52.074;4.748;2022-11-30T03:02:55;6.40;99.90
30234;DHT22;17046;52.074;4.748;2022-11-30T03:05:21;6.30;99.90
30234;DHT22;17046;52.074;4.748;2022-11-30T03:07:46;6.30;99.90
30234;DHT22;17046;52.074;4.748;2022-11-30T03:10:12;6.30;99.90
30234;DHT22;17046;52.074;4.748;2022-11-30T03:12:37;6.30;99.90
30234;DHT22;17046;52.074;4.748;2022-11-30T03:15:04;6.20;99.90
30234;DHT22;17046;52.074;4.748;2022-11-30T03:17:30;6.20;99.90
30234;DHT22;17046;52.074;4.748;2022-11-30T03:19:56;6.20;99.90
30234;DHT22;17046;52.074;4.748;2022-11-30T03:22:21;6.20;99.90
30234;DHT22;17046;52.074;4.748;2022-11-30T03:24:47;6.10;99.90
30234;DHT22;17046;52.074;4.748;2022-11-30T03:27:13;6.10;99.90
30234;DHT22;17046;52.074;4.748;2022-11-30T03:29:38;6.00;99.90
30234;DHT22;17046;52.074;4.748;2022-11-30T03:32:04;6.00;99.90
30234;DHT22;17046;52.074;4.748;2022-11-30T03:34:30;6.10;99.90
30234;DHT22;17046;52.074;4.748;2022-11-30T03:36:56;6.10;99.90
30234;DHT22;17046;52.074;4.748;2022-11-30T03:39:22;6.10;99.90
30234;DHT22;17046;52.074;4.748;2022-11-30T03:41:48;6.20;99.90
30234;DHT22;17046;52.074;4.748;2022-11-30T03:44:14;6.20;99.90
30234;DHT22;17046;52.074;4.748;2022-11-30T03:46:40;6.20;99.90
30234;DHT22;17046;52.074;4.748;2022-11-30T03:49:05;6.30;99.90
30234;DHT22;17046;52.074;4.748;2022-11-30T03:51:31;6.30;99.90
30234;DHT22;17046;52.074;4.748;2022-11-30T03:53:57;6.30;99.90
30234;DHT22;17046;52.074;4.748;2022-11-30T03:56:22;6.30;99.90
30234;DHT22;17046;52.074;4.748;2022-11-30T03:58:48;6.40;99.90
30234;DHT22;17046;52.074;4.748;2022-11-30T04:01:16;6.40;99.90
30234;DHT22;17046;52.074;4.748;2022-11-30T04:03:42;6.40;99.90
30234;DHT22;17046;52.074;4.748;2022-11-30T04:06:10;6.50;99.90
30234;DHT22;17046;52.074;4.748;2022-11-30T04:08:36;6.50;99.90
30234;DHT22;17046;52.074;4.748;2022-11-30T04:11:02;6.60;99.90
30234;DHT22;17046;52.074;4.748;2022-11-30T04:13:29;6.60;99.90
30234;DHT22;17046;52.074;4.748;2022-11-30T04:15:55;6.70;99.90
30234;DHT22;17046;52.074;4.748;2022-11-30T04:18:22;6.70;99.90
30234;DHT22;17046;52.074;4.748;2022-11-30T04:20:53;6.70;99.90
30234;DHT22;17046;52.074;4.748;2022-11-30T04:23:19;6.80;99.90
30234;DHT22;17046;52.074;4.748;2022-11-30T04:25:46;6.90;99.90
30234;DHT22;17046;52.074;4.748;2022-11-30T04:28:13;6.90;99.90
30234;DHT22;17046;52.074;4.748;2022-11-30T04:30:38;6.90;99.90
30234;DHT22;17046;52.074;4.748;2022-11-30T04:33:04;7.00;99.90
30234;DHT22;17046;52.074;4.748;2022-11-30T04:35:30;7.00;99.90
30234;DHT22;17046;52.074;4.748;2022-11-30T04:37:57;7.00;99.90
30234;DHT22;17046;52.074;4.748;2022-11-30T04:40:22;7.00;99.90
30234;DHT22;17046;52.074;4.748;2022-11-30T04:42:48;7.00;99.90
30234;DHT22;17046;52.074;4.748;2022-11-30T04:45:13;7.10;99.90
30234;DHT22;17046;52.074;4.748;2022-11-30T04:47:39;7.10;99.90
30234;DHT22;17046;52.074;4.748;2022-11-30T04:50:05;7.10;99.90
30234;DHT22;17046;52.074;4.748;2022-11-30T04:52:31;7.10;99.90
30234;DHT22;17046;52.074;4.748;2022-11-30T04:54:57;7.10;99.90
30234;DHT22;17046;52.074;4.748;2022-11-30T04:57:23;7.10;99.90
30234;DHT22;17046;52.074;4.748;2022-11-30T04:59:48;7.10;99.90
30234;DHT22;17046;52.074;4.748;2022-11-30T05:02:14;7.10;99.90
30234;DHT22;17046;52.074;4.748;2022-11-30T05:04:40;7.00;99.90
30234;DHT22;17046;52.074;4.748;2022-11-30T05:07:05;6.90;99.90
30234;DHT22;17046;52.074;4.748;2022-11-30T05:09:31;6.90;99.90
30234;DHT22;17046;52.074;4.748;2022-11-30T05:11:57;6.90;99.90
30234;DHT22;17046;52.074;4.748;2022-11-30T05:14:22;6.90;99.90
30234;DHT22;17046;52.074;4.748;2022-11-30T05:16:48;6.80;99.90
30234;DHT22;17046;52.074;4.748;2022-11-30T05:19:14;6.80;99.90
30234;DHT22;17046;52.074;4.748;2022-11-30T05:21:41;6.80;99.90
30234;DHT22;17046;52.074;4.748;2022-11-30T05:24:06;6.80;99.90
30234;DHT22;17046;52.074;4.748;2022-11-30T05:26:33;6.80;99.90
30234;DHT22;17046;52.074;4.748;2022-11-30T05:28:58;6.80;99.90
30234;DHT22;17046;52.074;4.748;2022-11-30T05:31:24;6.80;99.90
30234;DHT22;17046;52.074;4.748;2022-11-30T05:33:50;6.80;99.90
30234;DHT22;17046;52.074;4.748;2022-11-30T05:36:16;6.80;99.90
30234;DHT22;17046;52.074;4.748;2022-11-30T05:38:42;6.80;99.90
30234;DHT22;17046;52.074;4.748;2022-11-30T05:41:08;6.80;99.90
30234;DHT22;17046;52.074;4.748;2022-11-30T05:43:33;6.90;99.90
30234;DHT22;17046;52.074;4.748;2022-11-30T05:46:00;6.90;99.90
30234;DHT22;17046;52.074;4.748;2022-11-30T05:48:26;7.00;99.90
30234;DHT22;17046;52.074;4.748;2022-11-30T05:50:51;7.00;99.90
30234;DHT22;17046;52.074;4.748;2022-11-30T05:53:17;7.00;99.90
30234;DHT22;17046;52.074;4.748;2022-11-30T05:55:42;7.00;99.90
30234;DHT22;17046;52.074;4.748;2022-11-30T05:58:08;7.00;99.90
30234;DHT22;17046;52.074;4.748;2022-11-30T06:00:33;7.00;99.90
30234;DHT22;17046;52.074;4.748;2022-11-30T06:02:59;7.00;99.90
30234;DHT22;17046;52.074;4.748;2022-11-30T06:05:25;7.00;99.90
30234;DHT22;17046;52.074;4.748;2022-11-30T06:07:51;7.00;99.90
30234;DHT22;17046;52.074;4.748;2022-11-30T06:10:17;7.00;99.90
30234;DHT22;17046;52.074;4.748;2022-11-30T06:12:42;7.10;99.90
30234;DHT22;17046;52.074;4.748;2022-11-30T06:15:08;7.10;99.90
30234;DHT22;17046;52.074;4.748;2022-11-30T06:17:34;7.20;99.90
30234;DHT22;17046;52.074;4.748;2022-11-30T06:20:03;7.20;99.90
30234;DHT22;17046;52.074;4.748;2022-11-30T06:22:29;7.20;99.90
30234;DHT22;17046;52.074;4.748;2022-11-30T06:24:55;7.30;99.90
30234;DHT22;17046;52.074;4.748;2022-11-30T06:27:20;7.30;99.90
30234;DHT22;17046;52.074;4.748;2022-11-30T06:29:46;7.40;99.90
30234;DHT22;17046;52.074;4.748;2022-11-30T06:32:11;7.30;99.90
30234;DHT22;17046;52.074;4.748;2022-11-30T06:34:37;7.30;99.90
30234;DHT22;17046;52.074;4.748;2022-11-30T06:37:03;7.30;99.90
30234;DHT22;17046;52.074;4.748;2022-11-30T06:39:28;7.30;99.90
30234;DHT22;17046;52.074;4.748;2022-11-30T06:41:54;7.20;99.90
30234;DHT22;17046;52.074;4.748;2022-11-30T06:44:19;7.20;99.90
30234;DHT22;17046;52.074;4.748;2022-11-30T06:46:45;7.30;99.90
30234;DHT22;17046;52.074;4.748;2022-11-30T06:49:10;7.20;99.90
30234;DHT22;17046;52.074;4.748;2022-11-30T06:51:36;7.20;99.90
30234;DHT22;17046;52.074;4.748;2022-11-30T06:54:07;6.90;99.90
30234;DHT22;17046;52.074;4.748;2022-11-30T06:56:33;7.20;99.90
30234;DHT22;17046;52.074;4.748;2022-11-30T06:58:58;7.00;99.90
30234;DHT22;17046;52.074;4.748;2022-11-30T07:01:24;6.70;99.90
30234;DHT22;17046;52.074;4.748;2022-11-30T07:03:49;6.90;99.90
30234;DHT22;17046;52.074;4.748;2022-11-30T07:06:15;6.90;99.90
30234;DHT22;17046;52.074;4.748;2022-11-30T07:08:42;7.10;99.90
30234;DHT22;17046;52.074;4.748;2022-11-30T07:11:09;6.90;99.90
30234;DHT22;17046;52.074;4.748;2022-11-30T07:13:35;6.90;99.90
30234;DHT22;17046;52.074;4.748;2022-11-30T07:16:05;6.90;99.90
30234;DHT22;17046;52.074;4.748;2022-11-30T07:18:32;6.90;99.90
30234;DHT22;17046;52.074;4.748;2022-11-30T07:20:59;7.00;99.90
30234;DHT22;17046;52.074;4.748;2022-11-30T07:23:25;7.00;99.90
30234;DHT22;17046;52.074;4.748;2022-11-30T07:26:09;7.00;99.90
30234;DHT22;17046;52.074;4.748;2022-11-30T07:28:37;7.30;99.90
30234;DHT22;17046;52.074;4.748;2022-11-30T07:31:36;7.10;99.90
30234;DHT22;17046;52.074;4.748;2022-11-30T07:34:05;7.10;99.90
30234;DHT22;17046;52.074;4.748;2022-11-30T07:36:31;7.20;99.90
30234;DHT22;17046;52.074;4.748;2022-11-30T07:38:57;7.20;99.90
30234;DHT22;17046;52.074;4.748;2022-11-30T07:41:22;7.20;99.90
30234;DHT22;17046;52.074;4.748;2022-11-30T07:43:48;7.30;99.90
30234;DHT22;17046;52.074;4.748;2022-11-30T07:46:15;7.30;99.90
30234;DHT22;17046;52.074;4.748;2022-11-30T07:48:41;7.30;99.90
30234;DHT22;17046;52.074;4.748;2022-11-30T07:51:11;7.40;99.90
30234;DHT22;17046;52.074;4.748;2022-11-30T07:53:37;7.30;99.90
30234;DHT22;17046;52.074;4.748;2022-11-30T07:56:10;7.40;99.90
30234;DHT22;17046;52.074;4.748;2022-11-30T07:58:36;7.20;99.90
30234;DHT22;17046;52.074;4.748;2022-11-30T08:01:09;7.20;99.90
30234;DHT22;17046;52.074;4.748;2022-11-30T08:03:36;7.20;99.90
30234;DHT22;17046;52.074;4.748;2022-11-30T08:08:35;7.20;99.90
30234;DHT22;17046;52.074;4.748;2022-11-30T08:11:02;7.30;99.90
30234;DHT22;17046;52.074;4.748;2022-11-30T08:13:29;7.40;99.90
30234;DHT22;17046;52.074;4.748;2022-11-30T08:18:21;7.40;99.90
30234;DHT22;17046;52.074;4.748;2022-11-30T08:20:47;7.50;99.90
30234;DHT22;17046;52.074;4.748;2022-11-30T08:23:12;7.50;99.90
30234;DHT22;17046;52.074;4.748;2022-11-30T08:25:38;7.50;99.90
30234;DHT22;17046;52.074;4.748;2022-11-30T08:28:04;7.60;99.90
30234;DHT22;17046;52.074;4.748;2022-11-30T08:30:29;7.90;99.90
30234;DHT22;17046;52.074;4.748;2022-11-30T08:32:56;7.80;99.90
30234;DHT22;17046;52.074;4.748;2022-11-30T08:35:22;7.90;99.90
30234;DHT22;17046;52.074;4.748;2022-11-30T08:37:47;7.90;99.90
30234;DHT22;17046;52.074;4.748;2022-11-30T08:40:13;7.90;99.90
30234;DHT22;17046;52.074;4.748;2022-11-30T08:42:39;8.00;99.90
30234;DHT22;17046;52.074;4.748;2022-11-30T08:45:05;7.90;99.90
30234;DHT22;17046;52.074;4.748;2022-11-30T08:47:30;7.70;99.90
30234;DHT22;17046;52.074;4.748;2022-11-30T08:49:57;7.70;99.90
30234;DHT22;17046;52.074;4.748;2022-11-30T08:52:23;7.90;99.90
30234;DHT22;17046;52.074;4.748;2022-11-30T08:54:49;7.90;99.90
30234;DHT22;17046;52.074;4.748;2022-11-30T08:57:16;8.10;99.90
30234;DHT22;17046;52.074;4.748;2022-11-30T08:59:42;8.10;99.90
30234;DHT22;17046;52.074;4.748;2022-11-30T09:02:12;8.20;99.90
30234;DHT22;17046;52.074;4.748;2022-11-30T09:04:41;8.20;99.90
30234;DHT22;17046;52.074;4.748;2022-11-30T09:07:06;8.30;99.90
30234;DHT22;17046;52.074;4.748;2022-11-30T09:09:34;8.30;99.90
30234;DHT22;17046;52.074;4.748;2022-11-30T09:11:59;8.40;99.90
30234;DHT22;17046;52.074;4.748;2022-11-30T09:14:25;8.40;99.90
30234;DHT22;17046;52.074;4.748;2022-11-30T09:16:52;8.40;99.90
30234;DHT22;17046;52.074;4.748;2022-11-30T09:19:18;8.40;99.90
30234;DHT22;17046;52.074;4.748;2022-11-30T09:21:43;8.50;99.90
30234;DHT22;17046;52.074;4.748;2022-11-30T09:24:09;8.50;99.90
30234;DHT22;17046;52.074;4.748;2022-11-30T09:26:35;8.60;99.90
30234;DHT22;17046;52.074;4.748;2022-11-30T09:29:00;8.60;99.90
30234;DHT22;17046;52.074;4.748;2022-11-30T09:31:26;8.60;99.90
30234;DHT22;17046;52.074;4.748;2022-11-30T09:33:54;8.70;99.90
30234;DHT22;17046;52.074;4.748;2022-11-30T09:36:21;8.80;99.90
30234;DHT22;17046;52.074;4.748;2022-11-30T09:38:48;8.80;99.90
30234;DHT22;17046;52.074;4.748;2022-11-30T09:44:05;8.80;99.90
30234;DHT22;17046;52.074;4.748;2022-11-30T09:46:37;8.90;99.90
30234;DHT22;17046;52.074;4.748;2022-11-30T09:49:34;8.90;99.90
30234;DHT22;17046;52.074;4.748;2022-11-30T09:52:02;9.00;99.90
30234;DHT22;17046;52.074;4.748;2022-11-30T09:54:37;9.00;99.90
30234;DHT22;17046;52.074;4.748;2022-11-30T09:59:57;9.10;99.90
30234;DHT22;17046;52.074;4.748;2022-11-30T10:02:31;9.10;99.90
30234;DHT22;17046;52.074;4.748;2022-11-30T10:04:58;9.10;99.90
30234;DHT22;17046;52.074;4.748;2022-11-30T10:16:15;9.20;99.90
30234;DHT22;17046;52.074;4.748;2022-11-30T10:24:32;9.10;99.90
30234;DHT22;17046;52.074;4.748;2022-11-30T10:27:05;9.10;99.90
30234;DHT22;17046;52.074;4.748;2022-11-30T10:29:38;9.10;99.90
30234;DHT22;17046;52.074;4.748;2022-11-30T10:32:23;9.20;99.90
30234;DHT22;17046;52.074;4.748;2022-11-30T10:34:53;9.20;99.90
30234;DHT22;17046;52.074;4.748;2022-11-30T10:37:35;9.20;99.90
30234;DHT22;17046;52.074;4.748;2022-11-30T10:42:41;9.30;99.90
30234;DHT22;17046;52.074;4.748;2022-11-30T10:45:14;9.30;99.90
30234;DHT22;17046;52.074;4.748;2022-11-30T10:50:39;9.70;99.90
30234;DHT22;17046;52.074;4.748;2022-11-30T10:53:05;9.90;99.90
30234;DHT22;17046;52.074;4.748;2022-11-30T10:55:42;10.10;99.90
30234;DHT22;17046;52.074;4.748;2022-11-30T10:58:28;10.30;99.90
30234;DHT22;17046;52.074;4.748;2022-11-30T11:01:05;10.20;99.90
30234;DHT22;17046;52.074;4.748;2022-11-30T11:03:31;10.20;99.90
30234;DHT22;17046;52.074;4.748;2022-11-30T11:06:20;10.20;99.90
30234;DHT22;17046;52.074;4.748;2022-11-30T11:08:47;10.20;99.90
30234;DHT22;17046;52.074;4.748;2022-11-30T11:11:44;10.10;99.90
30234;DHT22;17046;52.074;4.748;2022-11-30T11:14:18;10.10;99.90
30234;DHT22;17046;52.074;4.748;2022-11-30T11:16:58;10.10;99.90
30234;DHT22;17046;52.074;4.748;2022-11-30T11:19:41;10.20;99.90
30234;DHT22;17046;52.074;4.748;2022-11-30T11:24:41;10.40;99.90
30234;DHT22;17046;52.074;4.748;2022-11-30T11:29:44;10.10;99.90
30234;DHT22;17046;52.074;4.748;2022-11-30T11:32:22;10.20;99.90
30234;DHT22;17046;52.074;4.748;2022-11-30T11:34:51;10.30;99.90
30234;DHT22;17046;52.074;4.748;2022-11-30T11:37:19;10.50;99.90
30234;DHT22;17046;52.074;4.748;2022-11-30T11:40:09;10.60;99.90
30234;DHT22;17046;52.074;4.748;2022-11-30T11:42:55;10.60;99.90
30234;DHT22;17046;52.074;4.748;2022-11-30T11:45:26;10.50;92.50
30234;DHT22;17046;52.074;4.748;2022-11-30T11:47:58;10.50;73.70
30234;DHT22;17046;52.074;4.748;2022-11-30T11:50:35;10.40;77.20
30234;DHT22;17046;52.074;4.748;2022-11-30T11:55:58;10.30;88.30
30234;DHT22;17046;52.074;4.748;2022-11-30T11:58:34;10.20;86.00
30234;DHT22;17046;52.074;4.748;2022-11-30T12:01:05;10.00;99.90
30234;DHT22;17046;52.074;4.748;2022-11-30T12:03:37;9.80;99.90
30234;DHT22;17046;52.074;4.748;2022-11-30T12:06:25;9.80;99.90
30234;DHT22;17046;52.074;4.748;2022-11-30T12:09:06;9.90;99.90
30234;DHT22;17046;52.074;4.748;2022-11-30T12:11:44;10.00;99.90
30234;DHT22;17046;52.074;4.748;2022-11-30T12:14:12;10.00;99.90
30234;DHT22;17046;52.074;4.748;2022-11-30T12:19:20;9.90;99.90
30234;DHT22;17046;52.074;4.748;2022-11-30T12:24:29;10.00;81.50
30234;DHT22;17046;52.074;4.748;2022-11-30T12:29:52;10.10;72.50
30234;DHT22;17046;52.074;4.748;2022-11-30T12:34:56;10.40;70.20
30234;DHT22;17046;52.074;4.748;2022-11-30T12:37:57;10.40;41.10
30234;DHT22;17046;52.074;4.748;2022-11-30T12:45:58;10.10;69.00
30234;DHT22;17046;52.074;4.748;2022-11-30T12:54:38;9.80;99.90
30234;DHT22;17046;52.074;4.748;2022-11-30T12:57:17;9.80;99.90
30234;DHT22;17046;52.074;4.748;2022-11-30T13:00:21;9.70;99.90
30234;DHT22;17046;52.074;4.748;2022-11-30T13:05:50;9.80;99.90
30234;DHT22;17046;52.074;4.748;2022-11-30T13:08:24;9.60;99.90
30234;DHT22;17046;52.074;4.748;2022-11-30T13:11:02;9.40;99.90
30234;DHT22;17046;52.074;4.748;2022-11-30T13:13:33;9.50;99.90
30234;DHT22;17046;52.074;4.748;2022-11-30T13:16:03;9.50;99.90
30234;DHT22;17046;52.074;4.748;2022-11-30T13:18:30;9.70;99.90
30234;DHT22;17046;52.074;4.748;2022-11-30T13:21:13;9.70;99.90
30234;DHT22;17046;52.074;4.748;2022-11-30T13:24:02;9.70;99.90
30234;DHT22;17046;52.074;4.748;2022-11-30T13:26:30;9.60;99.90
30234;DHT22;17046;52.074;4.748;2022-11-30T13:32:10;9.50;99.90
30234;DHT22;17046;52.074;4.748;2022-11-30T13:34:37;9.50;99.90
30234;DHT22;17046;52.074;4.748;2022-11-30T13:37:08;9.40;99.90
30234;DHT22;17046;52.074;4.748;2022-11-30T13:42:32;9.40;99.90
30234;DHT22;17046;52.074;4.748;2022-11-30T13:47:37;9.20;99.90
30234;DHT22;17046;52.074;4.748;2022-11-30T13:50:53;9.20;99.90
30234;DHT22;17046;52.074;4.748;2022-11-30T13:55:44;9.00;99.90
30234;DHT22;17046;52.074;4.748;2022-11-30T13:58:11;8.90;99.90
30234;DHT22;17046;52.074;4.748;2022-11-30T14:03:25;8.70;99.90
30234;DHT22;17046;52.074;4.748;2022-11-30T14:05:57;8.70;99.90
30234;DHT22;17046;52.074;4.748;2022-11-30T14:10:53;8.60;99.90
30234;DHT22;17046;52.074;4.748;2022-11-30T14:13:27;8.60;99.90
30234;DHT22;17046;52.074;4.748;2022-11-30T14:15:56;8.60;99.90
30234;DHT22;17046;52.074;4.748;2022-11-30T14:18:36;8.60;99.90
30234;DHT22;17046;52.074;4.748;2022-11-30T14:21:12;8.60;99.90
30234;DHT22;17046;52.074;4.748;2022-11-30T14:26:10;8.70;99.90
30234;DHT22;17046;52.074;4.748;2022-11-30T14:28:41;8.70;99.90
30234;DHT22;17046;52.074;4.748;2022-11-30T14:31:13;8.80;99.90
30234;DHT22;17046;52.074;4.748;2022-11-30T14:33:47;8.80;99.90
30234;DHT22;17046;52.074;4.748;2022-11-30T14:36:13;8.80;99.90
30234;DHT22;17046;52.074;4.748;2022-11-30T14:38:41;8.80;99.90
30234;DHT22;17046;52.074;4.748;2022-11-30T14:41:18;8.70;99.90
30234;DHT22;17046;52.074;4.748;2022-11-30T14:44:09;8.70;99.90
30234;DHT22;17046;52.074;4.748;2022-11-30T14:46:35;8.70;99.90
30234;DHT22;17046;52.074;4.748;2022-11-30T14:49:11;8.60;99.90
30234;DHT22;17046;52.074;4.748;2022-11-30T14:51:46;8.70;99.90
30234;DHT22;17046;52.074;4.748;2022-11-30T14:54:18;8.60;99.90
30234;DHT22;17046;52.074;4.748;2022-11-30T14:56:48;8.60;99.90
30234;DHT22;17046;52.074;4.748;2022-11-30T15:02:02;9.70;99.90
30234;DHT22;17046;52.074;4.748;2022-11-30T15:04:29;8.40;99.90
30234;DHT22;17046;52.074;4.748;2022-11-30T15:06:56;8.30;99.90
30234;DHT22;17046;52.074;4.748;2022-11-30T15:09:24;8.30;99.90
30234;DHT22;17046;52.074;4.748;2022-11-30T15:11:52;8.20;99.90
30234;DHT22;17046;52.074;4.748;2022-11-30T15:14:18;8.10;99.90
30234;DHT22;17046;52.074;4.748;2022-11-30T15:16:51;8.00;99.90
30234;DHT22;17046;52.074;4.748;2022-11-30T15:19:21;8.00;99.90
30234;DHT22;17046;52.074;4.748;2022-11-30T15:21:48;7.90;99.90
30234;DHT22;17046;52.074;4.748;2022-11-30T15:24:14;7.90;99.90
30234;DHT22;17046;52.074;4.748;2022-11-30T15:26:56;7.80;99.90
30234;DHT22;17046;52.074;4.748;2022-11-30T15:29:33;7.70;99.90
30234;DHT22;17046;52.074;4.748;2022-11-30T15:32:01;7.70;99.90
30234;DHT22;17046;52.074;4.748;2022-11-30T15:34:47;7.70;99.90
30234;DHT22;17046;52.074;4.748;2022-11-30T15:37:14;7.60;99.90
30234;DHT22;17046;52.074;4.748;2022-11-30T15:39:43;7.50;99.90
30234;DHT22;17046;52.074;4.748;2022-11-30T15:42:18;7.50;99.90
30234;DHT22;17046;52.074;4.748;2022-11-30T15:44:45;7.40;99.90
30234;DHT22;17046;52.074;4.748;2022-11-30T15:47:30;7.30;99.90
30234;DHT22;17046;52.074;4.748;2022-11-30T15:49:56;7.30;99.90
30234;DHT22;17046;52.074;4.748;2022-11-30T15:52:27;7.20;99.90
30234;DHT22;17046;52.074;4.748;2022-11-30T15:54:58;7.20;99.90
30234;DHT22;17046;52.074;4.748;2022-11-30T15:57:57;7.10;99.90
30234;DHT22;17046;52.074;4.748;2022-11-30T16:00:22;7.00;99.90
30234;DHT22;17046;52.074;4.748;2022-11-30T16:02:48;7.00;99.90
30234;DHT22;17046;52.074;4.748;2022-11-30T16:07:57;6.70;99.90
30234;DHT22;17046;52.074;4.748;2022-11-30T16:10:35;6.60;99.90
30234;DHT22;17046;52.074;4.748;2022-11-30T16:13:02;6.50;99.90
30234;DHT22;17046;52.074;4.748;2022-11-30T16:15:33;6.50;99.90
30234;DHT22;17046;52.074;4.748;2022-11-30T16:18:17;6.50;99.90
30234;DHT22;17046;52.074;4.748;2022-11-30T16:20:49;6.40;99.90
30234;DHT22;17046;52.074;4.748;2022-11-30T16:23:15;6.30;99.90
30234;DHT22;17046;52.074;4.748;2022-11-30T16:25:42;6.30;99.90
30234;DHT22;17046;52.074;4.748;2022-11-30T16:28:09;6.20;99.90
30234;DHT22;17046;52.074;4.748;2022-11-30T16:30:35;6.20;99.90
30234;DHT22;17046;52.074;4.748;2022-11-30T16:33:01;6.10;99.90
30234;DHT22;17046;52.074;4.748;2022-11-30T16:37:58;6.10;99.90
30234;DHT22;17046;52.074;4.748;2022-11-30T16:40:24;6.00;99.90
30234;DHT22;17046;52.074;4.748;2022-11-30T16:42:50;6.00;99.90
30234;DHT22;17046;52.074;4.748;2022-11-30T16:45:23;5.90;99.90
30234;DHT22;17046;52.074;4.748;2022-11-30T16:47:50;5.80;99.90
30234;DHT22;17046;52.074;4.748;2022-11-30T16:50:16;5.80;99.90
30234;DHT22;17046;52.074;4.748;2022-11-30T16:52:43;5.70;99.90
30234;DHT22;17046;52.074;4.748;2022-11-30T16:55:16;5.70;99.90
30234;DHT22;17046;52.074;4.748;2022-11-30T16:57:42;5.60;99.90
30234;DHT22;17046;52.074;4.748;2022-11-30T17:00:10;5.60;99.90
30234;DHT22;17046;52.074;4.748;2022-11-30T17:02:40;5.60;99.90
30234;DHT22;17046;52.074;4.748;2022-11-30T17:05:09;5.60;99.90
30234;DHT22;17046;52.074;4.748;2022-11-30T17:07:35;5.60;99.90
30234;DHT22;17046;52.074;4.748;2022-11-30T17:10:03;5.60;99.90
30234;DHT22;17046;52.074;4.748;2022-11-30T17:12:29;5.60;99.90
30234;DHT22;17046;52.074;4.748;2022-11-30T17:14:55;5.50;99.90
30234;DHT22;17046;52.074;4.748;2022-11-30T17:17:20;5.40;99.90
30234;DHT22;17046;52.074;4.748;2022-11-30T17:19:46;5.40;99.90
30234;DHT22;17046;52.074;4.748;2022-11-30T17:22:11;5.30;99.90
30234;DHT22;17046;52.074;4.748;2022-11-30T17:24:37;5.30;99.90
30234;DHT22;17046;52.074;4.748;2022-11-30T17:27:03;5.20;99.90
30234;DHT22;17046;52.074;4.748;2022-11-30T17:29:30;5.20;99.90
30234;DHT22;17046;52.074;4.748;2022-11-30T17:31:55;5.20;99.90
30234;DHT22;17046;52.074;4.748;2022-11-30T17:34:21;5.20;99.90
30234;DHT22;17046;52.074;4.748;2022-11-30T17:36:46;5.20;99.90
30234;DHT22;17046;52.074;4.748;2022-11-30T17:39:15;5.10;99.90
30234;DHT22;17046;52.074;4.748;2022-11-30T17:41:41;5.20;99.90